createdAt,value
2019-02-27T10:51:23.891Z,65.90
2019-02-27T12:39:02.438Z,64.10
2019-02-27T12:41:32.526Z,64.20
2019-02-27T12:44:02.568Z,64.40
2019-02-27T12:46:34.072Z,63.50
2019-02-27T12:49:02.910Z,64.00
2019-02-27T12:51:32.191Z,63.80
2019-02-27T12:54:02.064Z,64.10
2019-02-27T12:56:31.356Z,64.30
2019-02-27T12:59:00.718Z,64.20
2019-02-27T13:01:30.013Z,64.50
2019-02-27T13:03:59.373Z,64.60
2019-02-27T13:06:28.705Z,64.60
2019-02-27T13:08:58.219Z,64.90
2019-02-27T13:11:27.561Z,64.70
2019-02-27T13:13:57.220Z,65.10
2019-02-27T13:16:28.065Z,65.80
2019-02-27T13:18:57.421Z,65.40
2019-02-27T13:21:26.728Z,64.60
2019-02-27T13:23:56.095Z,64.40
2019-02-27T13:26:25.423Z,65.60
2019-02-27T13:28:54.733Z,64.30
2019-02-27T13:31:24.078Z,64.00
2019-02-27T13:33:53.391Z,64.00
2019-02-27T13:36:22.756Z,64.10
2019-02-27T13:38:52.336Z,64.10
2019-02-27T13:41:23.711Z,64.00
2019-02-27T13:43:53.236Z,62.40
2019-02-27T13:46:22.906Z,62.90
2019-02-27T13:48:52.762Z,62.70
2019-02-27T13:51:22.073Z,62.20
2019-02-27T13:53:51.477Z,63.30
2019-02-27T13:56:20.839Z,62.90
2019-02-27T13:58:50.224Z,61.30
2019-02-27T14:01:19.629Z,62.30
2019-02-27T14:03:49.081Z,61.30
2019-02-27T14:06:18.442Z,60.90
2019-02-27T14:08:47.789Z,61.20
2019-02-27T14:11:17.160Z,62.40
2019-02-27T14:13:46.371Z,61.80
2019-02-27T14:16:15.712Z,60.50
2019-02-27T14:18:49.804Z,59.90
2019-02-27T14:21:16.134Z,59.70
2019-02-27T14:23:46.957Z,60.00
2019-02-27T14:26:16.580Z,60.00
2019-02-27T14:28:45.894Z,60.60
